Time;durP1;ratioP1;P1;durP2;ratioP2;P2;SDS_P1;SDS_P2;PMS_P1;PMS_P2;Temp;Humidity;BMP_temperature;BMP_pressure;BME280_temperature;BME280_humidity;BME280_pressure;Samples;Min_cycle;Max_cycle;Signal;HPM_P1;HPM_P2
2022/07/01 00:00:06;;;;;;;13.80;11.32;;;;;;;24.79;66.86;100505.00;5044538;28;20073;-67
2022/07/01 00:02:32;;;;;;;13.48;10.95;;;;;;;24.46;68.17;100504.31;5045003;28;20078;-66
2022/07/01 00:04:58;;;;;;;13.60;11.75;;;;;;;24.42;68.53;100510.19;5039523;28;20085;-69
2022/07/01 00:07:25;;;;;;;15.32;11.38;;;;;;;24.48;68.25;100496.09;5044760;28;20095;-69
2022/07/01 00:09:51;;;;;;;13.30;11.88;;;;;;;24.59;67.76;100506.41;5035546;28;20072;-69
2022/07/01 00:12:17;;;;;;;14.60;12.02;;;;;;;24.59;67.75;100504.56;5042721;28;20103;-69
2022/07/01 00:14:44;;;;;;;13.93;11.52;;;;;;;24.45;68.44;100502.66;5045369;28;20056;-69
2022/07/01 00:17:11;;;;;;;17.38;12.38;;;;;;;24.20;69.24;100501.06;5041843;28;20115;-69
2022/07/01 00:19:38;;;;;;;13.60;11.73;;;;;;;24.34;68.93;100499.50;5042357;28;20051;-69
2022/07/01 00:22:04;;;;;;;14.75;11.77;;;;;;;24.07;69.87;100500.72;5046214;28;20472;-69
2022/07/01 00:24:30;;;;;;;14.30;11.75;;;;;;;23.95;70.56;100488.69;5044690;28;20497;-69
2022/07/01 00:26:57;;;;;;;16.33;11.88;;;;;;;24.30;69.29;100490.13;5043443;28;20094;-70
2022/07/01 00:29:23;;;;;;;14.65;12.15;;;;;;;24.38;68.65;100476.72;5043302;28;20080;-70
2022/07/01 00:31:49;;;;;;;15.60;12.15;;;;;;;24.28;69.32;100478.78;5043696;28;20045;-70
2022/07/01 00:34:17;;;;;;;14.25;11.57;;;;;;;24.26;69.32;100480.78;5044970;28;20052;-69
2022/07/01 00:36:43;;;;;;;20.10;12.30;;;;;;;24.07;70.09;100488.19;5039629;28;20087;-69
2022/07/01 00:39:10;;;;;;;15.48;12.60;;;;;;;24.31;69.20;100478.41;5044325;28;20049;-70
2022/07/01 00:41:37;;;;;;;14.45;11.88;;;;;;;24.19;69.67;100480.63;5045122;28;20045;-68
2022/07/01 00:44:03;;;;;;;14.82;11.88;;;;;;;24.42;68.49;100467.31;5042309;28;20548;-69
2022/07/01 00:46:30;;;;;;;13.40;11.68;;;;;;;24.33;69.10;100468.34;5043282;28;20075;-69
2022/07/01 00:49:00;;;;;;;14.20;12.02;;;;;;;24.32;68.94;100464.00;5043754;28;20118;-68
2022/07/01 00:51:29;;;;;;;16.98;11.93;;;;;;;24.32;69.09;100458.63;5043033;28;20132;-69
2022/07/01 00:53:58;;;;;;;13.88;11.60;;;;;;;24.41;68.54;100460.28;5042980;28;20049;-69
2022/07/01 00:56:24;;;;;;;13.45;11.90;;;;;;;24.32;69.13;100461.31;5043480;28;20048;-69
2022/07/01 00:58:50;;;;;;;16.25;12.63;;;;;;;23.97;70.25;100460.75;5044072;28;20045;-69
2022/07/01 01:01:17;;;;;;;16.60;11.68;;;;;;;24.02;70.28;100461.06;5044613;28;20134;-69
2022/07/01 01:03:43;;;;;;;14.40;12.80;;;;;;;24.26;69.56;100456.66;5043768;28;20509;-69
2022/07/01 01:06:10;;;;;;;17.90;12.85;;;;;;;24.11;69.93;100461.88;5038015;28;20041;-69
2022/07/01 01:08:38;;;;;;;14.50;11.90;;;;;;;24.21;69.45;100451.81;5043562;28;20507;-69
2022/07/01 01:11:06;;;;;;;14.30;12.50;;;;;;;24.00;69.94;100447.00;5041997;28;20049;-69
2022/07/01 01:13:32;;;;;;;14.55;12.32;;;;;;;23.84;70.95;100449.72;5044659;28;20049;-69
2022/07/01 01:15:58;;;;;;;16.73;11.65;;;;;;;24.09;69.96;100448.63;5044856;28;20041;-65
2022/07/01 01:18:25;;;;;;;18.08;12.68;;;;;;;24.19;69.13;100437.78;5043443;28;20466;-65
2022/07/01 01:20:54;;;;;;;15.40;13.27;;;;;;;24.10;69.64;100453.00;5024612;28;20053;-67
2022/07/01 01:23:21;;;;;;;16.58;12.70;;;;;;;23.65;71.96;100447.47;5039346;28;20104;-67
2022/07/01 01:25:48;;;;;;;16.52;12.88;;;;;;;23.36;72.72;100463.16;5026971;28;20057;-67
2022/07/01 01:28:15;;;;;;;22.00;13.95;;;;;;;23.55;72.18;100463.69;5042592;28;20076;-67
2022/07/01 01:30:41;;;;;;;16.90;13.50;;;;;;;23.31;72.95;100469.03;5042997;28;20116;-66
2022/07/01 01:33:08;;;;;;;17.15;13.35;;;;;;;23.54;72.10;100466.56;5041798;28;20118;-66
2022/07/01 01:35:35;;;;;;;18.35;12.43;;;;;;;23.74;71.51;100465.16;5039879;28;20054;-66
2022/07/01 01:38:03;;;;;;;16.70;12.45;;;;;;;23.80;71.17;100460.97;5041982;28;20041;-67
2022/07/01 01:40:29;;;;;;;19.48;13.13;;;;;;;23.71;71.19;100469.03;5041859;28;20102;-67
2022/07/01 01:42:55;;;;;;;18.55;13.50;;;;;;;24.20;69.17;100469.72;5043951;28;20094;-67
2022/07/01 01:45:22;;;;;;;16.77;12.77;;;;;;;24.02;69.71;100492.38;5043042;28;20137;-67
2022/07/01 01:47:48;;;;;;;17.15;12.75;;;;;;;23.48;72.00;100500.16;5041665;28;20114;-67
2022/07/01 01:50:15;;;;;;;20.38;13.77;;;;;;;23.29;73.43;100519.19;5044219;28;20045;-66
2022/07/01 01:52:43;;;;;;;18.48;13.52;;;;;;;23.39;72.74;100524.38;5044239;28;20103;-66
2022/07/01 01:55:11;;;;;;;17.80;13.00;;;;;;;23.24;73.28;100535.72;5042340;28;20123;-67
2022/07/01 01:57:37;;;;;;;18.60;14.82;;;;;;;23.01;74.20;100540.06;5043139;28;20041;-67
2022/07/01 02:00:05;;;;;;;17.75;13.93;;;;;;;23.48;72.52;100547.50;5042014;28;20526;-66
2022/07/01 02:02:33;;;;;;;20.98;14.48;;;;;;;23.50;71.93;100557.00;5042633;28;20090;-66
2022/07/01 02:04:59;;;;;;;19.35;14.18;;;;;;;23.28;73.15;100638.72;5041008;28;20049;-67
2022/07/01 02:07:26;;;;;;;21.73;13.95;;;;;;;22.68;75.28;100637.19;5040538;28;20630;-66
2022/07/01 02:09:52;;;;;;;16.27;12.60;;;;;;;22.37;75.79;100635.94;5046412;28;20095;-66
2022/07/01 02:12:20;;;;;;;12.93;9.90;;;;;;;22.51;72.51;100630.84;5047324;28;20136;-66
2022/07/01 02:14:46;;;;;;;20.63;10.20;;;;;;;22.88;71.22;100611.84;5045219;28;20048;-66
2022/07/01 02:17:12;;;;;;;15.43;9.23;;;;;;;22.87;70.49;100614.72;5044920;28;20045;-66
2022/07/01 02:19:38;;;;;;;11.73;7.68;;;;;;;23.08;68.53;100617.78;5048010;28;20049;-66
2022/07/01 02:22:05;;;;;;;7.95;5.82;;;;;;;22.90;67.04;100599.19;5046437;28;20115;-66
2022/07/01 02:24:31;;;;;;;8.32;4.25;;;;;;;22.55;66.22;100583.28;5047712;28;20080;-66
2022/07/01 02:26:58;;;;;;;4.97;3.30;;;;;;;22.47;66.34;100581.41;5046982;28;20607;-66
2022/07/01 02:29:25;;;;;;;5.47;3.47;;;;;;;22.51;66.20;100580.09;5045484;28;20056;-66
2022/07/01 02:31:52;;;;;;;4.40;2.65;;;;;;;22.49;65.58;100555.38;5046836;28;20052;-66
2022/07/01 02:34:18;;;;;;;9.23;3.10;;;;;;;22.27;66.89;100564.78;5045879;28;20067;-67
2022/07/01 02:36:45;;;;;;;5.70;3.05;;;;;;;22.78;65.17;100541.66;5044456;28;20491;-66
2022/07/01 02:39:11;;;;;;;7.88;3.60;;;;;;;22.76;64.91;100531.09;5046379;28;20136;-66
2022/07/01 02:44:17;;;;;;;3.65;2.30;;;;;;;22.88;63.81;100520.13;5036956;28;20080;-66
2022/07/01 02:46:45;;;;;;;3.42;2.40;;;;;;;22.60;64.32;100508.81;5044525;28;20091;-66
2022/07/01 02:49:11;;;;;;;3.95;2.42;;;;;;;22.31;65.09;100523.41;5035453;28;20048;-66
2022/07/01 02:51:38;;;;;;;3.65;2.28;;;;;;;22.60;63.99;100522.19;5046646;28;20106;-66
2022/07/01 02:54:04;;;;;;;6.45;2.50;;;;;;;22.55;64.59;100511.13;5044227;28;20495;-66
2022/07/01 02:56:31;;;;;;;5.10;2.28;;;;;;;22.66;64.10;100506.31;5045582;28;20134;-66
2022/07/01 02:58:57;;;;;;;6.25;3.20;;;;;;;23.05;63.16;100505.78;5045537;28;20045;-66
2022/07/01 03:01:24;;;;;;;4.13;2.58;;;;;;;23.07;63.64;100519.81;5043939;28;20335;-66
2022/07/01 03:03:53;;;;;;;8.95;3.20;;;;;;;23.00;64.12;100551.75;5046797;28;20052;-66
2022/07/01 03:06:19;;;;;;;4.05;2.70;;;;;;;23.42;62.65;100558.88;5046809;28;20490;-66
2022/07/01 03:08:45;;;;;;;7.95;3.17;;;;;;;23.26;63.70;100562.31;5044674;28;20467;-66
2022/07/01 03:11:12;;;;;;;8.02;3.17;;;;;;;23.53;63.78;100588.81;5046524;28;20099;-66
2022/07/01 03:13:38;;;;;;;9.13;3.95;;;;;;;23.21;66.07;100594.91;5050652;28;20098;-66
2022/07/01 03:16:04;;;;;;;8.30;3.60;;;;;;;23.63;64.99;100608.22;5040564;28;20056;-67
2022/07/01 03:18:31;;;;;;;6.88;3.30;;;;;;;23.43;66.19;100604.19;5041296;28;20053;-67
2022/07/01 03:20:58;;;;;;;7.18;4.20;;;;;;;23.51;66.35;100581.94;5034238;28;20418;-67
2022/07/01 03:23:25;;;;;;;8.80;3.78;;;;;;;23.58;66.42;100581.09;5042015;28;20083;-67
2022/07/01 03:25:51;;;;;;;11.98;4.70;;;;;;;23.56;67.50;100590.31;5046248;28;20076;-68
2022/07/01 03:28:18;;;;;;;8.80;4.47;;;;;;;23.19;69.85;100629.03;5043080;28;20053;-68
2022/07/01 03:30:44;;;;;;;9.00;4.63;;;;;;;21.89;75.29;100655.09;5042548;28;20052;-68
2022/07/01 03:33:10;;;;;;;8.35;4.65;;;;;;;22.22;75.33;100641.88;5042358;28;20041;-70
2022/07/01 03:35:39;;;;;;;6.75;4.70;;;;;;;22.31;75.81;100709.56;5037331;28;20056;-74
2022/07/01 03:38:07;;;;;;;16.88;7.32;;;;;;;21.57;80.02;100763.22;5042064;28;20045;-76
2022/07/01 03:46:31;;;;;;;39.65;8.13;;;;;;;19.94;89.78;100763.50;4996897;28;20111;-67
2022/07/01 03:48:58;;;;;;;24.35;8.02;;;;;;;20.29;88.27;100747.84;5009856;28;20612;-67
2022/07/01 03:51:25;;;;;;;34.92;9.73;;;;;;;20.26;90.77;100742.78;5015067;28;20052;-67
2022/07/01 03:56:37;;;;;;;20.35;6.47;;;;;;;20.66;86.37;100760.41;5015951;28;20180;-67
2022/07/01 03:59:03;;;;;;;18.48;6.00;;;;;;;20.59;86.21;100775.28;5012132;28;20627;-67
2022/07/01 04:01:29;;;;;;;11.77;6.20;;;;;;;20.30;88.28;100781.50;5008910;28;20444;-67
2022/07/01 04:03:56;;;;;;;10.90;6.40;;;;;;;20.32;88.41;100765.38;5024455;28;20076;-67
2022/07/01 04:06:22;;;;;;;16.25;6.60;;;;;;;20.76;87.56;100758.59;5023286;28;20143;-67
2022/07/01 04:08:50;;;;;;;12.05;6.43;;;;;;;20.56;88.56;100751.59;5020512;28;20096;-68
2022/07/01 04:11:18;;;;;;;15.07;6.65;;;;;;;20.31;90.51;100774.34;5024465;28;20088;-67
2022/07/01 04:13:46;;;;;;;11.32;6.15;;;;;;;20.95;86.21;100774.53;5019667;28;20073;-67
2022/07/01 04:16:13;;;;;;;16.00;7.55;;;;;;;21.07;87.32;100732.53;5011926;28;20136;-67
2022/07/01 04:18:40;;;;;;;16.85;7.15;;;;;;;20.85;88.33;100683.09;5021349;28;20041;-67
2022/07/01 04:23:50;;;;;;;14.63;8.00;;;;;;;20.64;90.75;100670.00;5023614;28;20064;-67
2022/07/01 04:26:18;;;;;;;14.93;8.30;;;;;;;20.55;92.10;100664.66;5019846;28;20502;-68
2022/07/01 04:28:44;;;;;;;21.20;8.13;;;;;;;20.60;92.81;100662.44;5004674;28;20081;-68
2022/07/01 04:31:10;;;;;;;17.25;9.32;;;;;;;20.57;94.29;100660.91;5023556;28;20115;-68
2022/07/01 04:33:37;;;;;;;14.25;8.00;;;;;;;20.95;91.17;100694.56;5016658;28;20049;-69
2022/07/01 04:36:03;;;;;;;11.77;7.30;;;;;;;21.08;89.26;100710.22;5023666;28;20131;-69
2022/07/01 04:38:30;;;;;;;11.02;6.53;;;;;;;21.40;86.29;100749.78;5023705;28;20080;-69
2022/07/01 04:43:41;;;;;;;10.85;6.32;;;;;;;22.11;81.13;100805.03;5023816;28;20066;-69
2022/07/01 04:46:07;;;;;;;9.77;7.03;;;;;;;21.19;87.31;100806.88;5013470;28;20070;-69
2022/07/01 04:48:34;;;;;;;10.23;6.95;;;;;;;21.08;88.58;100822.19;5016507;28;20045;-68
2022/07/01 04:51:00;;;;;;;13.32;8.02;;;;;;;21.09;89.32;100824.72;5023815;28;20069;-70
2022/07/01 04:53:26;;;;;;;10.80;7.60;;;;;;;20.99;84.44;100837.22;5025616;28;20055;-68
2022/07/01 04:55:53;;;;;;;10.23;7.47;;;;;;;20.79;86.43;100843.56;5024509;28;20073;-68
2022/07/01 04:58:19;;;;;;;11.65;7.68;;;;;;;20.98;85.66;100840.88;5024755;28;20073;-69
2022/07/01 05:00:48;;;;;;;11.68;9.15;;;;;;;21.27;84.91;100830.16;5022948;28;20045;-70
2022/07/01 05:03:14;;;;;;;15.30;9.57;;;;;;;21.34;84.05;100842.78;5023765;28;20448;-69
2022/07/01 05:05:41;;;;;;;15.85;9.30;;;;;;;20.91;84.92;100850.44;5024997;28;20187;-69
2022/07/01 05:08:07;;;;;;;9.93;7.00;;;;;;;20.86;83.33;100850.00;5009693;28;20049;-69
2022/07/01 05:10:33;;;;;;;9.00;5.80;;;;;;;20.52;84.33;100859.41;5003464;28;20074;-69
2022/07/01 05:13:00;;;;;;;8.43;4.97;;;;;;;20.16;85.76;100863.56;5004513;28;20481;-69
2022/07/01 05:15:26;;;;;;;7.53;5.28;;;;;;;19.60;88.41;100865.91;5003919;28;20317;-70
2022/07/01 05:23:21;;;;;;;9.35;6.05;;;;;;;19.37;88.82;100812.03;5016633;28;20052;-69
2022/07/01 05:25:48;;;;;;;9.43;6.38;;;;;;;18.97;90.64;100780.09;5024093;28;20131;-70
2022/07/01 05:28:15;;;;;;;8.15;6.20;;;;;;;19.23;90.04;100799.97;5024398;28;20068;-69
2022/07/01 05:30:41;;;;;;;9.05;6.10;;;;;;;18.88;90.37;100813.59;5021809;28;20509;-68
2022/07/01 05:33:08;;;;;;;10.18;6.55;;;;;;;18.84;91.26;100795.41;5024134;28;20513;-69
2022/07/01 05:35:35;;;;;;;10.02;7.45;;;;;;;18.83;92.13;100812.31;5026294;28;20073;-70
2022/07/01 05:38:01;;;;;;;11.85;6.90;;;;;;;18.89;90.38;100849.84;5024020;28;20103;-71
2022/07/01 05:40:28;;;;;;;9.57;7.35;;;;;;;18.83;90.30;100852.19;5021864;28;20111;-71
2022/07/01 05:42:54;;;;;;;9.45;6.80;;;;;;;18.84;89.29;100854.72;5020085;28;20591;-70
2022/07/01 05:45:21;;;;;;;10.20;7.30;;;;;;;19.10;88.87;100856.97;5026861;28;20049;-70
2022/07/01 05:47:47;;;;;;;8.98;6.80;;;;;;;19.12;87.02;100871.81;5024311;28;20073;-69
2022/07/01 05:50:15;;;;;;;10.40;7.05;;;;;;;19.28;86.99;100858.06;5042689;28;20409;-69
2022/07/01 05:52:42;;;;;;;8.68;5.82;;;;;;;18.93;87.53;100895.59;5041814;28;20041;-69
2022/07/01 05:55:09;;;;;;;8.20;6.10;;;;;;;19.06;88.32;100904.22;5026897;28;20041;-69
2022/07/01 05:57:35;;;;;;;6.75;5.10;;;;;;;19.27;84.75;100904.22;5027047;28;20740;-69
2022/07/01 06:00:02;;;;;;;7.97;5.78;;;;;;;19.41;84.51;100912.72;5026182;28;20069;-68
2022/07/01 06:02:28;;;;;;;9.57;6.38;;;;;;;19.53;85.40;100899.34;5026748;28;20041;-68
2022/07/01 06:04:54;;;;;;;10.85;5.07;;;;;;;19.82;83.07;100908.28;5027872;28;20570;-70
2022/07/01 06:07:22;;;;;;;7.88;5.00;;;;;;;19.49;84.60;100919.19;5034337;28;20045;-68
2022/07/01 06:09:48;;;;;;;6.85;4.65;;;;;;;19.48;83.08;100921.00;5026210;28;20111;-68
2022/07/01 06:12:15;;;;;;;6.55;4.35;;;;;;;19.41;82.92;100931.34;5028032;28;20065;-68
2022/07/01 06:14:41;;;;;;;4.60;3.72;;;;;;;19.35;83.33;100937.16;5026220;28;20131;-68
2022/07/01 06:17:08;;;;;;;5.03;3.50;;;;;;;19.18;83.78;100928.94;5026096;28;20456;-68
2022/07/01 06:19:34;;;;;;;5.90;3.55;;;;;;;19.13;83.55;100910.72;5015999;28;20041;-68
2022/07/01 06:22:00;;;;;;;6.85;3.30;;;;;;;18.85;85.17;100901.53;5024657;28;20068;-69
2022/07/01 06:24:28;;;;;;;5.32;3.40;;;;;;;18.89;85.49;100880.88;5028234;28;20061;-69
2022/07/01 06:26:54;;;;;;;5.35;3.55;;;;;;;18.83;86.51;100894.69;5027453;28;20061;-69
2022/07/01 06:29:21;;;;;;;4.95;3.28;;;;;;;18.86;86.28;100903.25;5023585;28;20057;-69
2022/07/01 06:31:47;;;;;;;4.97;3.22;;;;;;;18.87;86.09;100904.09;5026945;28;20053;-69
2022/07/01 06:34:13;;;;;;;3.75;3.30;;;;;;;18.88;86.05;100903.13;5026730;28;20098;-69
2022/07/01 06:36:40;;;;;;;4.93;2.90;;;;;;;19.16;85.62;100905.13;5026955;28;20501;-70
2022/07/01 06:39:06;;;;;;;4.35;2.90;;;;;;;19.29;83.71;100905.75;5026648;28;20497;-71
2022/07/01 06:41:34;;;;;;;3.33;2.60;;;;;;;19.65;82.73;100906.28;5028072;28;20099;-69
2022/07/01 06:44:01;;;;;;;4.50;2.40;;;;;;;19.83;80.91;100910.00;5024416;28;20107;-69
2022/07/01 06:46:30;;;;;;;2.83;2.10;;;;;;;19.56;79.96;100904.41;5028060;28;20147;-70
2022/07/01 06:48:58;;;;;;;3.35;2.08;;;;;;;19.80;79.85;100884.50;5018173;28;21639;-70
2022/07/01 06:51:24;;;;;;;2.50;2.00;;;;;;;19.41;82.09;100895.88;5006891;28;20054;-70
2022/07/01 06:53:51;;;;;;;3.97;1.85;;;;;;;19.49;78.68;100903.25;5022117;28;20046;-69
2022/07/01 06:56:18;;;;;;;3.85;2.15;;;;;;;18.90;81.60;100909.13;5025590;28;20065;-69
2022/07/01 06:58:45;;;;;;;6.80;2.42;;;;;;;18.92;80.94;100925.78;5025503;28;20058;-74
2022/07/01 07:01:13;;;;;;;4.53;2.50;;;;;;;19.09;81.42;100935.00;5038418;28;20049;-75
2022/07/01 07:03:39;;;;;;;8.60;3.10;;;;;;;18.74;81.40;100929.97;5039511;28;20490;-74
2022/07/01 07:06:06;;;;;;;4.28;2.70;;;;;;;18.72;81.90;100938.09;5033241;28;20045;-72
2022/07/01 07:08:33;;;;;;;4.53;2.47;;;;;;;18.63;82.32;100954.75;5034153;28;20170;-73
2022/07/01 07:11:00;;;;;;;3.90;2.90;;;;;;;18.62;82.53;100952.25;5033163;28;20092;-73
2022/07/01 07:13:26;;;;;;;4.22;2.97;;;;;;;18.98;82.44;100945.69;5028049;28;20169;-73
2022/07/01 07:15:54;;;;;;;4.00;2.83;;;;;;;19.06;82.35;100954.72;5023010;28;20111;-73
2022/07/01 07:18:20;;;;;;;6.05;3.25;;;;;;;19.33;79.96;100965.69;5028478;28;20128;-73
2022/07/01 07:20:47;;;;;;;3.70;2.85;;;;;;;19.17;81.93;100965.31;5026827;28;20497;-73
2022/07/01 07:23:13;;;;;;;4.35;2.47;;;;;;;18.87;79.11;100965.19;5028343;28;20124;-73
2022/07/01 07:25:40;;;;;;;3.47;2.50;;;;;;;18.87;80.95;100962.53;5027584;28;20103;-72
2022/07/01 07:28:06;;;;;;;3.10;2.30;;;;;;;18.78;80.26;100955.31;5025575;28;20464;-73
2022/07/01 07:30:32;;;;;;;3.58;2.55;;;;;;;18.73;80.02;100960.19;5025423;28;20077;-74
2022/07/01 07:33:00;;;;;;;4.68;2.95;;;;;;;19.07;80.60;100963.56;5024548;28;20099;-74
2022/07/01 07:35:27;;;;;;;3.25;2.53;;;;;;;19.05;79.59;100968.97;5020410;28;20050;-70
2022/07/01 07:37:53;;;;;;;4.43;2.78;;;;;;;19.41;77.71;100975.66;5012082;28;20056;-69
2022/07/01 07:40:20;;;;;;;4.88;3.30;;;;;;;19.01;78.76;100995.94;5031142;28;20045;-69
2022/07/01 07:42:48;;;;;;;4.00;3.30;;;;;;;18.53;79.88;101024.69;5018999;28;20052;-69
2022/07/01 07:45:15;;;;;;;7.60;3.20;;;;;;;18.47;80.21;101034.81;5027077;28;20501;-69
2022/07/01 07:47:45;;;;;;;5.50;3.70;;;;;;;18.45;81.47;101014.63;5018453;28;20084;-70
2022/07/01 07:50:13;;;;;;;4.85;3.80;;;;;;;18.55;81.29;100980.28;4998208;28;20675;-68
2022/07/01 07:52:40;;;;;;;6.13;4.20;;;;;;;18.23;83.61;100965.06;5030788;28;20471;-69
2022/07/01 07:55:09;;;;;;;7.22;3.45;;;;;;;18.37;82.28;100964.81;5027687;28;20057;-69
2022/07/01 07:57:36;;;;;;;9.45;4.32;;;;;;;18.60;81.13;100976.25;5026527;28;20484;-68
2022/07/01 08:00:04;;;;;;;6.80;3.70;;;;;;;18.67;82.16;100982.75;5024585;28;20034;-68
2022/07/01 08:02:31;;;;;;;8.07;3.58;;;;;;;19.01;80.63;101004.75;5028430;28;20124;-69
2022/07/01 08:04:57;;;;;;;9.77;4.72;;;;;;;18.67;82.01;101019.94;5023733;28;20048;-69
2022/07/01 08:07:25;;;;;;;8.27;4.85;;;;;;;18.67;81.52;101029.72;5025480;28;20046;-68
2022/07/01 08:09:52;;;;;;;7.15;3.97;;;;;;;18.59;82.03;101025.03;5026628;28;20052;-68
2022/07/01 08:12:18;;;;;;;5.57;3.60;;;;;;;18.59;82.26;101019.72;5026908;28;20401;-67
2022/07/01 08:14:44;;;;;;;7.18;3.65;;;;;;;18.74;82.87;101007.00;5024645;28;20045;-67
2022/07/01 08:17:11;;;;;;;5.10;3.80;;;;;;;18.63;83.79;101022.97;5026899;28;20103;-67
2022/07/01 08:19:37;;;;;;;6.88;3.63;;;;;;;18.83;81.05;101041.66;5024423;28;20049;-67
2022/07/01 08:22:04;;;;;;;4.07;2.92;;;;;;;18.94;80.45;101052.25;5026461;28;20119;-67
2022/07/01 08:24:32;;;;;;;7.88;3.30;;;;;;;18.79;81.18;101053.50;5026144;28;20053;-67
2022/07/01 08:26:58;;;;;;;4.15;3.35;;;;;;;18.64;81.70;101061.84;5024527;28;20041;-67
2022/07/01 08:29:24;;;;;;;5.93;3.72;;;;;;;18.40;82.64;101073.41;5025958;28;20099;-68
2022/07/01 08:31:51;;;;;;;6.47;3.70;;;;;;;18.30;82.94;101076.91;5027521;28;20071;-68
2022/07/01 08:34:17;;;;;;;5.03;3.40;;;;;;;18.49;83.15;101087.78;5028027;28;20706;-68
2022/07/01 08:36:43;;;;;;;6.40;3.45;;;;;;;18.45;82.55;101084.53;5029046;28;20367;-68
2022/07/01 08:39:10;;;;;;;6.35;3.22;;;;;;;18.58;81.39;101096.88;5028974;28;20410;-68
2022/07/01 08:41:40;;;;;;;5.40;3.22;;;;;;;18.76;81.81;101095.41;5024197;28;20049;-68
2022/07/01 08:44:06;;;;;;;4.05;3.38;;;;;;;18.95;80.34;101095.63;5028686;28;20072;-68
2022/07/01 08:46:34;;;;;;;7.18;3.67;;;;;;;19.14;79.60;101087.00;5028489;28;20115;-68
2022/07/01 08:49:01;;;;;;;5.95;3.78;;;;;;;18.93;79.54;101084.25;5026496;28;20041;-68
2022/07/01 08:51:28;;;;;;;5.95;3.45;;;;;;;18.92;79.75;101095.84;5028758;28;20041;-68
2022/07/01 08:53:54;;;;;;;6.60;3.88;;;;;;;19.11;78.80;101111.16;5026312;28;20099;-69
2022/07/01 08:59:06;;;;;;;5.13;3.30;;;;;;;18.82;79.77;101108.19;5026875;28;20142;-68
2022/07/01 09:01:33;;;;;;;11.93;3.70;;;;;;;18.42;80.98;101111.31;5025956;28;20045;-68
2022/07/01 09:04:14;;;;;;;5.82;3.83;;;;;;;18.41;81.42;101119.41;5028255;28;20041;-69
2022/07/01 09:06:41;;;;;;;5.28;3.17;;;;;;;18.01;81.45;101097.75;5027839;28;20482;-69
2022/07/01 09:09:13;;;;;;;5.60;3.70;;;;;;;18.19;82.23;101082.22;5025944;28;20765;-68
2022/07/01 09:11:45;;;;;;;5.75;3.92;;;;;;;18.26;81.63;101076.31;5024642;28;20050;-68
2022/07/01 09:14:14;;;;;;;4.97;3.35;;;;;;;18.16;82.34;101075.34;5024805;28;20068;-68
2022/07/01 09:16:41;;;;;;;4.63;3.60;;;;;;;18.17;81.69;101079.69;5013046;28;20067;-68
2022/07/01 09:19:08;;;;;;;6.03;3.65;;;;;;;18.19;81.54;101076.91;5030296;28;20549;-68
2022/07/01 09:21:34;;;;;;;9.32;3.38;;;;;;;18.24;81.34;101096.84;5027726;28;20075;-69
2022/07/01 09:24:22;;;;;;;7.07;3.35;;;;;;;18.60;79.66;101109.06;5019220;28;20050;-68
2022/07/01 09:26:53;;;;;;;6.43;3.63;;;;;;;18.54;81.42;101120.19;5009809;28;20038;-69
2022/07/01 09:29:21;;;;;;;4.82;3.50;;;;;;;18.53;81.54;101114.97;5022727;28;20107;-68
2022/07/01 09:31:49;;;;;;;12.95;3.53;;;;;;;19.17;79.08;101108.84;5015839;28;20128;-68
2022/07/01 09:34:16;;;;;;;4.85;3.60;;;;;;;18.57;81.29;101117.28;5025973;28;20057;-69
2022/07/01 09:36:53;;;;;;;5.82;3.10;;;;;;;18.84;80.23;101101.81;5014337;28;20073;-69
2022/07/01 09:39:19;;;;;;;5.15;3.03;;;;;;;19.13;78.91;101107.41;5010195;28;20524;-69
2022/07/01 09:41:45;;;;;;;6.70;3.40;;;;;;;19.21;79.27;101126.25;5024370;28;20703;-69
2022/07/01 09:44:12;;;;;;;6.18;3.30;;;;;;;19.39;76.72;101137.19;5016507;28;20072;-68
2022/07/01 09:46:52;;;;;;;7.97;3.35;;;;;;;19.55;76.26;101136.81;5007143;28;20045;-68
2022/07/01 09:49:18;;;;;;;4.90;3.30;;;;;;;19.09;77.46;101124.56;5011261;28;20045;-68
2022/07/01 09:51:45;;;;;;;6.07;3.35;;;;;;;18.79;77.79;101122.56;5032832;28;20072;-68
2022/07/01 09:54:13;;;;;;;5.15;3.03;;;;;;;18.79;78.43;101132.34;5025525;28;20092;-68
2022/07/01 09:56:39;;;;;;;6.50;3.50;;;;;;;18.98;78.67;101150.31;5014193;28;20573;-68
2022/07/01 09:59:06;;;;;;;8.18;3.80;;;;;;;19.17;76.63;101161.16;5011539;28;20104;-68
2022/07/01 10:01:33;;;;;;;7.97;4.03;;;;;;;19.54;76.78;101161.72;5034409;28;20394;-68
2022/07/01 10:04:02;;;;;;;5.10;3.47;;;;;;;19.42;77.72;101144.94;5041931;28;20139;-69
2022/07/01 10:06:53;;;;;;;7.03;4.03;;;;;;;19.18;78.45;101129.13;5036512;28;20061;-66
2022/07/01 10:09:44;;;;;;;8.20;3.80;;;;;;;19.46;76.15;101127.75;5025976;28;20045;-67
2022/07/01 10:12:33;;;;;;;6.32;3.92;;;;;;;19.02;77.91;101149.13;5022984;28;20057;-67
2022/07/01 10:15:02;;;;;;;6.10;4.30;;;;;;;18.79;81.25;101172.19;5018753;28;20558;-66
2022/07/01 10:17:30;;;;;;;6.97;4.60;;;;;;;18.32;81.33;101183.84;5028931;28;20498;-66
2022/07/01 10:20:06;;;;;;;6.28;4.53;;;;;;;18.72;79.03;101182.47;5029449;28;20042;-66
2022/07/01 10:22:35;;;;;;;5.85;4.55;;;;;;;18.66;80.57;101182.13;5027195;28;20076;-66
2022/07/01 10:25:50;;;;;;;7.35;4.72;;;;;;;18.79;80.34;101183.69;5031335;28;20485;-66
2022/07/01 10:28:20;;;;;;;7.05;4.68;;;;;;;18.97;78.36;101186.69;4970437;28;20121;-66
2022/07/01 10:30:55;;;;;;;7.95;5.22;;;;;;;18.61;79.91;101203.72;4970110;28;20073;-66
2022/07/01 10:33:49;;;;;;;8.63;4.72;;;;;;;18.36;81.63;101199.44;5000588;28;20053;-66
2022/07/01 10:36:25;;;;;;;6.97;4.80;;;;;;;18.29;82.21;101198.19;4976879;28;20033;-67
2022/07/01 10:39:17;;;;;;;6.07;4.68;;;;;;;18.13;83.49;101208.28;5027839;28;20045;-66
2022/07/01 10:41:56;;;;;;;9.83;5.10;;;;;;;18.61;82.24;101198.41;5030838;28;20045;-66
2022/07/01 10:44:25;;;;;;;7.35;4.53;;;;;;;18.20;82.85;101208.66;5027929;28;20045;-66
2022/07/01 10:46:56;;;;;;;6.88;5.10;;;;;;;18.60;82.37;101230.38;5032992;28;20118;-66
2022/07/01 10:49:54;;;;;;;6.70;4.37;;;;;;;18.82;81.18;101231.25;5040825;28;20156;-66
2022/07/01 10:52:22;;;;;;;6.38;4.55;;;;;;;19.17;80.71;101228.47;5033069;28;20319;-66
2022/07/01 10:54:53;;;;;;;5.30;3.90;;;;;;;18.73;80.07;101234.66;5032282;28;20073;-66
2022/07/01 10:57:27;;;;;;;4.88;3.88;;;;;;;18.54;81.96;101237.03;5031503;28;22192;-66
2022/07/01 10:59:56;;;;;;;6.28;3.50;;;;;;;18.42;81.98;101232.63;5032595;28;20068;-66
2022/07/01 11:02:24;;;;;;;5.40;3.53;;;;;;;18.38;81.56;101232.00;5029168;28;20754;-66
2022/07/01 11:04:52;;;;;;;5.75;3.88;;;;;;;18.71;81.69;101238.38;5031717;28;20046;-66
2022/07/01 11:07:18;;;;;;;5.72;3.60;;;;;;;18.28;83.89;101228.38;5030543;28;20045;-66
2022/07/01 11:09:46;;;;;;;6.13;3.60;;;;;;;18.25;84.04;101223.31;5028521;28;20433;-66
2022/07/01 11:12:15;;;;;;;4.35;3.00;;;;;;;18.01;84.45;101222.47;5025588;28;20049;-67
2022/07/01 11:14:42;;;;;;;4.70;3.00;;;;;;;17.88;84.99;101224.38;5028467;28;20042;-66
2022/07/01 11:17:10;;;;;;;4.82;3.03;;;;;;;18.26;82.96;101235.59;5029884;28;20088;-66
2022/07/01 11:19:36;;;;;;;5.13;3.25;;;;;;;18.11;83.37;101220.81;5029809;28;20103;-67
2022/07/01 11:22:05;;;;;;;6.05;3.38;;;;;;;18.04;84.41;101200.16;5030304;28;20096;-66
2022/07/01 11:24:31;;;;;;;4.40;3.00;;;;;;;17.90;85.45;101187.94;5029000;28;20084;-66
2022/07/01 11:27:07;;;;;;;6.00;3.80;;;;;;;18.26;85.81;101184.31;5026873;28;20493;-66
2022/07/01 11:29:33;;;;;;;7.90;3.45;;;;;;;18.18;84.79;101192.84;5026411;28;20052;-66
2022/07/01 11:32:00;;;;;;;5.40;3.13;;;;;;;18.30;85.09;101191.91;5031709;28;20049;-66
2022/07/01 11:34:28;;;;;;;3.40;2.92;;;;;;;18.40;86.02;101192.06;5031470;28;20104;-66
2022/07/01 11:39:41;;;;;;;6.05;2.30;;;;;;;18.56;84.30;101195.25;5027574;28;20056;-65
2022/07/01 11:42:11;;;;;;;4.68;2.70;;;;;;;18.90;84.56;101196.09;5031682;28;20041;-65
2022/07/01 11:44:40;;;;;;;6.75;2.28;;;;;;;19.09;80.92;101191.03;5028991;28;20103;-64
2022/07/01 11:47:08;;;;;;;4.30;2.20;;;;;;;19.18;81.04;101206.22;5015641;28;20593;-65
2022/07/01 11:49:43;;;;;;;3.35;2.50;;;;;;;19.11;81.52;101207.69;5023687;28;20493;-65
2022/07/01 11:52:10;;;;;;;3.70;2.15;;;;;;;18.98;81.58;101206.97;5022298;28;20077;-65